sensor_id;sensor_type;location;lat;lon;timestamp;pressure;altitude;pressure_sealevel;temperature;humidity
79123;BME280;68526;44.600;26.032;2024-03-06T00:00:01;100490.81;;;5.19;78.73
79123;BME280;68526;44.600;26.032;2024-03-06T00:00:19;100488.41;;;5.17;78.72
79123;BME280;68526;44.600;26.032;2024-03-06T00:00:35;100491.13;;;5.17;78.99
79123;BME280;68526;44.600;26.032;2024-03-06T00:00:51;100493.53;;;5.19;78.77
79123;BME280;68526;44.600;26.032;2024-03-06T00:01:08;100486.50;;;5.18;78.60
79123;BME280;68526;44.600;26.032;2024-03-06T00:01:24;100488.66;;;5.16;78.89
79123;BME280;68526;44.600;26.032;2024-03-06T00:01:40;100487.03;;;5.15;78.58
79123;BME280;68526;44.600;26.032;2024-03-06T00:01:56;100499.00;;;5.14;78.49
79123;BME280;68526;44.600;26.032;2024-03-06T00:02:13;100497.91;;;5.15;79.08
79123;BME280;68526;44.600;26.032;2024-03-06T00:02:30;100481.09;;;5.13;78.87
79123;BME280;68526;44.600;26.032;2024-03-06T00:02:46;100489.75;;;5.15;78.69
79123;BME280;68526;44.600;26.032;2024-03-06T00:03:02;100493.28;;;5.15;78.89
79123;BME280;68526;44.600;26.032;2024-03-06T00:03:18;100491.38;;;5.16;78.93
79123;BME280;68526;44.600;26.032;2024-03-06T00:03:34;100489.75;;;5.15;79.08
79123;BME280;68526;44.600;26.032;2024-03-06T00:03:50;100494.09;;;5.16;78.57
79123;BME280;68526;44.600;26.032;2024-03-06T00:04:06;100492.47;;;5.15;78.86
79123;BME280;68526;44.600;26.032;2024-03-06T00:04:23;100494.38;;;5.14;79.18
79123;BME280;68526;44.600;26.032;2024-03-06T00:04:39;100496.28;;;5.14;79.07
79123;BME280;68526;44.600;26.032;2024-03-06T00:04:55;100497.38;;;5.13;78.95
79123;BME280;68526;44.600;26.032;2024-03-06T00:05:12;100490.63;;;5.10;79.12
79123;BME280;68526;44.600;26.032;2024-03-06T00:05:28;100489.78;;;5.09;79.04
79123;BME280;68526;44.600;26.032;2024-03-06T00:05:44;100495.19;;;5.15;78.72
79123;BME280;68526;44.600;26.032;2024-03-06T00:06:00;100493.84;;;5.17;78.99
79123;BME280;68526;44.600;26.032;2024-03-06T00:06:16;100494.94;;;5.16;79.03
79123;BME280;68526;44.600;26.032;2024-03-06T00:06:33;100490.31;;;5.17;78.82
79123;BME280;68526;44.600;26.032;2024-03-06T00:06:49;100497.34;;;5.18;78.95
79123;BME280;68526;44.600;26.032;2024-03-06T00:07:07;100487.84;;;5.15;78.79
79123;BME280;68526;44.600;26.032;2024-03-06T00:07:23;100487.03;;;5.15;79.28
79123;BME280;68526;44.600;26.032;2024-03-06T00:07:39;100494.66;;;5.13;79.38
79123;BME280;68526;44.600;26.032;2024-03-06T00:07:55;100487.63;;;5.12;79.00
79123;BME280;68526;44.600;26.032;2024-03-06T00:08:11;100496.28;;;5.14;79.10
79123;BME280;68526;44.600;26.032;2024-03-06T00:08:28;100500.63;;;5.15;79.28
79123;BME280;68526;44.600;26.032;2024-03-06T00:08:44;100493.56;;;5.14;78.92
79123;BME280;68526;44.600;26.032;2024-03-06T00:09:00;100494.38;;;5.14;78.87
79123;BME280;68526;44.600;26.032;2024-03-06T00:09:18;100493.84;;;5.12;79.24
79123;BME280;68526;44.600;26.032;2024-03-06T00:09:34;100493.56;;;5.14;78.95
79123;BME280;68526;44.600;26.032;2024-03-06T00:09:50;100497.09;;;5.14;79.28
79123;BME280;68526;44.600;26.032;2024-03-06T00:10:07;100491.13;;;5.12;78.79
79123;BME280;68526;44.600;26.032;2024-03-06T00:10:24;100494.41;;;5.09;79.10
79123;BME280;68526;44.600;26.032;2024-03-06T00:10:41;100498.19;;;5.13;79.07
79123;BME280;68526;44.600;26.032;2024-03-06T00:10:57;100496.56;;;5.12;79.16
79123;BME280;68526;44.600;26.032;2024-03-06T00:11:13;100494.66;;;5.13;79.30
79123;BME280;68526;44.600;26.032;2024-03-06T00:11:29;100496.56;;;5.12;79.25
79123;BME280;68526;44.600;26.032;2024-03-06T00:11:45;100491.69;;;5.09;79.51
79123;BME280;68526;44.600;26.032;2024-03-06T00:12:01;100495.75;;;5.12;79.73
79123;BME280;68526;44.600;26.032;2024-03-06T00:12:17;100496.56;;;5.12;79.51
79123;BME280;68526;44.600;26.032;2024-03-06T00:12:34;100496.84;;;5.11;78.76
79123;BME280;68526;44.600;26.032;2024-03-06T00:12:50;100499.81;;;5.14;78.99
79123;BME280;68526;44.600;26.032;2024-03-06T00:13:07;100491.94;;;5.13;78.93
79123;BME280;68526;44.600;26.032;2024-03-06T00:13:23;100491.66;;;5.14;79.52
79123;BME280;68526;44.600;26.032;2024-03-06T00:13:39;100502.28;;;5.11;79.00
79123;BME280;68526;44.600;26.032;2024-03-06T00:13:55;100492.75;;;5.13;79.40
79123;BME280;68526;44.600;26.032;2024-03-06T00:14:10;100488.13;;;5.14;79.18
79123;BME280;68526;44.600;26.032;2024-03-06T00:14:28;100499.00;;;5.14;79.48
79123;BME280;68526;44.600;26.032;2024-03-06T00:14:44;100493.56;;;5.14;79.20
79123;BME280;68526;44.600;26.032;2024-03-06T00:15:00;100492.50;;;5.09;79.45
79123;BME280;68526;44.600;26.032;2024-03-06T00:15:18;100500.13;;;5.07;79.33
79123;BME280;68526;44.600;26.032;2024-03-06T00:15:34;100506.91;;;5.10;79.40
79123;BME280;68526;44.600;26.032;2024-03-06T00:15:50;100493.84;;;5.12;79.36
79123;BME280;68526;44.600;26.032;2024-03-06T00:16:07;100498.75;;;5.10;79.47
79123;BME280;68526;44.600;26.032;2024-03-06T00:16:23;100501.75;;;5.08;79.62
79123;BME280;68526;44.600;26.032;2024-03-06T00:16:39;100494.16;;;5.11;79.35
79123;BME280;68526;44.600;26.032;2024-03-06T00:16:55;100499.31;;;5.07;79.60
79123;BME280;68526;44.600;26.032;2024-03-06T00:17:11;100492.78;;;5.08;78.99
79123;BME280;68526;44.600;26.032;2024-03-06T00:17:27;100500.13;;;5.07;79.43
79123;BME280;68526;44.600;26.032;2024-03-06T00:17:45;100486.03;;;5.05;79.36
79123;BME280;68526;44.600;26.032;2024-03-06T00:18:01;100498.47;;;5.12;79.19
79123;BME280;68526;44.600;26.032;2024-03-06T00:18:19;100491.69;;;5.09;79.58
79123;BME280;68526;44.600;26.032;2024-03-06T00:18:35;100501.75;;;5.08;79.67
79123;BME280;68526;44.600;26.032;2024-03-06T00:18:51;100501.47;;;5.10;79.72
79123;BME280;68526;44.600;26.032;2024-03-06T00:19:07;100493.56;;;5.14;79.57
79123;BME280;68526;44.600;26.032;2024-03-06T00:19:23;100495.47;;;5.13;79.20
79123;BME280;68526;44.600;26.032;2024-03-06T00:19:39;100487.84;;;5.15;79.71
79123;BME280;68526;44.600;26.032;2024-03-06T00:19:55;100497.91;;;5.15;79.48
79123;BME280;68526;44.600;26.032;2024-03-06T00:20:11;100491.38;;;5.16;79.82
79123;BME280;68526;44.600;26.032;2024-03-06T00:20:29;100483.00;;;5.12;79.83
79123;BME280;68526;44.600;26.032;2024-03-06T00:20:45;100491.66;;;5.14;79.39
79123;BME280;68526;44.600;26.032;2024-03-06T00:21:01;100489.75;;;5.15;79.45
79123;BME280;68526;44.600;26.032;2024-03-06T00:21:18;100494.38;;;5.14;79.22
79123;BME280;68526;44.600;26.032;2024-03-06T00:21:34;100499.25;;;5.17;79.29
79123;BME280;68526;44.600;26.032;2024-03-06T00:21:52;100497.91;;;5.15;79.19
79123;BME280;68526;44.600;26.032;2024-03-06T00:22:08;100492.22;;;5.16;79.63
79123;BME280;68526;44.600;26.032;2024-03-06T00:22:25;100495.75;;;5.17;79.18
79123;BME280;68526;44.600;26.032;2024-03-06T00:22:41;100497.66;;;5.16;79.39
79123;BME280;68526;44.600;26.032;2024-03-06T00:22:57;100496.00;;;5.15;79.54
79123;BME280;68526;44.600;26.032;2024-03-06T00:23:14;100494.94;;;5.11;79.52
79123;BME280;68526;44.600;26.032;2024-03-06T00:23:30;100498.22;;;5.08;79.52
79123;BME280;68526;44.600;26.032;2024-03-06T00:23:46;100495.22;;;5.09;79.20
79123;BME280;68526;44.600;26.032;2024-03-06T00:24:03;100485.22;;;5.05;79.60
79123;BME280;68526;44.600;26.032;2024-03-06T00:24:20;100490.88;;;5.08;79.37
79123;BME280;68526;44.600;26.032;2024-03-06T00:24:36;100497.66;;;5.11;79.02
79123;BME280;68526;44.600;26.032;2024-03-06T00:24:52;100494.66;;;5.13;78.99
79123;BME280;68526;44.600;26.032;2024-03-06T00:25:08;100492.25;;;5.11;78.97
79123;BME280;68526;44.600;26.032;2024-03-06T00:25:24;100493.84;;;5.12;79.27
79123;BME280;68526;44.600;26.032;2024-03-06T00:25:40;100487.63;;;5.12;79.51
79123;BME280;68526;44.600;26.032;2024-03-06T00:25:57;100496.53;;;5.17;79.14
79123;BME280;68526;44.600;26.032;2024-03-06T00:26:13;100497.09;;;5.14;79.05
79123;BME280;68526;44.600;26.032;2024-03-06T00:26:29;100481.91;;;5.08;79.26
79123;BME280;68526;44.600;26.032;2024-03-06T00:26:45;100487.63;;;5.12;79.58
79123;BME280;68526;44.600;26.032;2024-03-06T00:27:02;100489.78;;;5.09;79.27
79123;BME280;68526;44.600;26.032;2024-03-06T00:27:19;100486.81;;;5.06;79.12
79123;BME280;68526;44.600;26.032;2024-03-06T00:27:35;100492.78;;;5.08;79.23
79123;BME280;68526;44.600;26.032;2024-03-06T00:27:52;100498.22;;;5.08;79.23
79123;BME280;68526;44.600;26.032;2024-03-06T00:28:09;100495.50;;;5.08;79.26
79123;BME280;68526;44.600;26.032;2024-03-06T00:28:25;100491.97;;;5.07;79.60
79123;BME280;68526;44.600;26.032;2024-03-06T00:28:41;100489.25;;;5.07;79.47
79123;BME280;68526;44.600;26.032;2024-03-06T00:28:57;100496.06;;;5.05;79.63
79123;BME280;68526;44.600;26.032;2024-03-06T00:29:13;100484.66;;;5.03;79.52
79123;BME280;68526;44.600;26.032;2024-03-06T00:29:30;100493.06;;;5.06;79.82
79123;BME280;68526;44.600;26.032;2024-03-06T00:29:48;100479.00;;;4.99;79.80
79123;BME280;68526;44.600;26.032;2024-03-06T00:30:05;100488.44;;;5.07;79.43
79123;BME280;68526;44.600;26.032;2024-03-06T00:30:21;100493.34;;;5.05;79.47
79123;BME280;68526;44.600;26.032;2024-03-06T00:30:37;100490.63;;;5.05;79.38
79123;BME280;68526;44.600;26.032;2024-03-06T00:30:53;100494.72;;;5.02;79.51
79123;BME280;68526;44.600;26.032;2024-03-06T00:31:09;100495.53;;;5.03;79.41
79123;BME280;68526;44.600;26.032;2024-03-06T00:31:25;100489.28;;;5.02;79.56
79123;BME280;68526;44.600;26.032;2024-03-06T00:31:43;100483.03;;;5.02;79.58
79123;BME280;68526;44.600;26.032;2024-03-06T00:31:59;100481.94;;;5.03;79.46
79123;BME280;68526;44.600;26.032;2024-03-06T00:32:15;100488.75;;;5.00;79.77
79123;BME280;68526;44.600;26.032;2024-03-06T00:32:31;100487.94;;;5.00;79.54
79123;BME280;68526;44.600;26.032;2024-03-06T00:32:48;100487.13;;;4.99;79.62
79123;BME280;68526;44.600;26.032;2024-03-06T00:33:05;100488.75;;;5.00;79.61
79123;BME280;68526;44.600;26.032;2024-03-06T00:33:21;100482.22;;;5.01;79.64
79123;BME280;68526;44.600;26.032;2024-03-06T00:33:38;100495.00;;;5.01;79.61
79123;BME280;68526;44.600;26.032;2024-03-06T00:33:54;100488.75;;;5.00;79.99
79123;BME280;68526;44.600;26.032;2024-03-06T00:34:10;100491.47;;;5.00;79.75
79123;BME280;68526;44.600;26.032;2024-03-06T00:34:26;100486.59;;;4.97;79.68
79123;BME280;68526;44.600;26.032;2024-03-06T00:34:43;100492.00;;;4.97;80.08
79123;BME280;68526;44.600;26.032;2024-03-06T00:34:59;100484.16;;;4.96;80.18
79123;BME280;68526;44.600;26.032;2024-03-06T00:35:16;100493.91;;;4.97;80.00
79123;BME280;68526;44.600;26.032;2024-03-06T00:35:32;100474.09;;;4.96;80.21
79123;BME280;68526;44.600;26.032;2024-03-06T00:35:48;100486.34;;;4.94;80.24
79123;BME280;68526;44.600;26.032;2024-03-06T00:36:04;100485.25;;;4.95;80.27
79123;BME280;68526;44.600;26.032;2024-03-06T00:36:21;100491.75;;;4.99;80.12
79123;BME280;68526;44.600;26.032;2024-03-06T00:36:38;100488.50;;;4.97;79.99
79123;BME280;68526;44.600;26.032;2024-03-06T00:36:54;100494.22;;;4.95;80.02
79123;BME280;68526;44.600;26.032;2024-03-06T00:37:11;100492.59;;;4.94;80.02
79123;BME280;68526;44.600;26.032;2024-03-06T00:37:27;100482.25;;;4.96;79.83
79123;BME280;68526;44.600;26.032;2024-03-06T00:37:43;100476.31;;;4.89;80.00
79123;BME280;68526;44.600;26.032;2024-03-06T00:37:59;100487.69;;;4.96;80.25
79123;BME280;68526;44.600;26.032;2024-03-06T00:38:18;100488.78;;;4.95;80.01
79123;BME280;68526;44.600;26.032;2024-03-06T00:38:33;100498.53;;;4.96;80.54
79123;BME280;68526;44.600;26.032;2024-03-06T00:38:50;100490.41;;;4.96;80.10
79123;BME280;68526;44.600;26.032;2024-03-06T00:39:06;100499.63;;;4.95;80.09
79123;BME280;68526;44.600;26.032;2024-03-06T00:39:23;100488.78;;;4.95;80.13
79123;BME280;68526;44.600;26.032;2024-03-06T00:39:40;100495.00;;;4.96;80.12
79123;BME280;68526;44.600;26.032;2024-03-06T00:39:56;100487.69;;;4.96;80.27
79123;BME280;68526;44.600;26.032;2024-03-06T00:40:13;100496.38;;;4.98;80.21
79123;BME280;68526;44.600;26.032;2024-03-06T00:40:29;100496.09;;;5.00;80.29
79123;BME280;68526;44.600;26.032;2024-03-06T00:40:46;100498.00;;;4.99;80.26
79123;BME280;68526;44.600;26.032;2024-03-06T00:41:02;100494.72;;;5.02;80.15
79123;BME280;68526;44.600;26.032;2024-03-06T00:41:19;100488.47;;;5.02;80.23
79123;BME280;68526;44.600;26.032;2024-03-06T00:41:36;100496.31;;;5.03;79.98
79123;BME280;68526;44.600;26.032;2024-03-06T00:41:52;100481.94;;;5.03;79.73
79123;BME280;68526;44.600;26.032;2024-03-06T00:42:08;100495.25;;;5.04;79.78
79123;BME280;68526;44.600;26.032;2024-03-06T00:42:26;100490.34;;;5.06;80.10
79123;BME280;68526;44.600;26.032;2024-03-06T00:42:42;100494.97;;;5.06;79.56
79123;BME280;68526;44.600;26.032;2024-03-06T00:42:59;100493.59;;;5.08;79.94
79123;BME280;68526;44.600;26.032;2024-03-06T00:43:15;100492.50;;;5.09;79.66
79123;BME280;68526;44.600;26.032;2024-03-06T00:43:32;100491.97;;;5.07;79.62
79123;BME280;68526;44.600;26.032;2024-03-06T00:43:48;100489.53;;;5.06;80.11
79123;BME280;68526;44.600;26.032;2024-03-06T00:44:04;100498.50;;;5.06;79.50
79123;BME280;68526;44.600;26.032;2024-03-06T00:44:21;100497.69;;;5.06;79.82
79123;BME280;68526;44.600;26.032;2024-03-06T00:44:37;100493.34;;;5.05;79.73
79123;BME280;68526;44.600;26.032;2024-03-06T00:44:53;100494.97;;;5.06;79.72
79123;BME280;68526;44.600;26.032;2024-03-06T00:45:09;100499.56;;;5.11;79.93
79123;BME280;68526;44.600;26.032;2024-03-06T00:45:25;100492.50;;;5.09;79.60
79123;BME280;68526;44.600;26.032;2024-03-06T00:45:42;100499.84;;;5.09;79.92
79123;BME280;68526;44.600;26.032;2024-03-06T00:45:58;100491.72;;;5.04;79.45
79123;BME280;68526;44.600;26.032;2024-03-06T00:46:15;100491.16;;;5.07;79.72
79123;BME280;68526;44.600;26.032;2024-03-06T00:46:31;100496.06;;;5.10;79.47
79123;BME280;68526;44.600;26.032;2024-03-06T00:46:47;100506.63;;;5.12;79.58
79123;BME280;68526;44.600;26.032;2024-03-06T00:47:03;100502.53;;;5.09;79.66
79123;BME280;68526;44.600;26.032;2024-03-06T00:47:19;100503.66;;;5.08;79.62
79123;BME280;68526;44.600;26.032;2024-03-06T00:47:37;100495.22;;;5.09;79.57
79123;BME280;68526;44.600;26.032;2024-03-06T00:47:55;100496.06;;;5.10;79.93
79123;BME280;68526;44.600;26.032;2024-03-06T00:48:11;100506.34;;;5.08;79.48
79123;BME280;68526;44.600;26.032;2024-03-06T00:48:27;100495.50;;;5.08;79.57
79123;BME280;68526;44.600;26.032;2024-03-06T00:48:43;100499.84;;;5.09;79.33
79123;BME280;68526;44.600;26.032;2024-03-06T00:48:59;100499.84;;;5.09;79.67
79123;BME280;68526;44.600;26.032;2024-03-06T00:49:15;100502.53;;;5.09;79.43
79123;BME280;68526;44.600;26.032;2024-03-06T00:49:32;100501.75;;;5.08;79.70
79123;BME280;68526;44.600;26.032;2024-03-06T00:49:48;100498.75;;;5.10;79.87
79123;BME280;68526;44.600;26.032;2024-03-06T00:50:05;100507.44;;;5.12;79.67
79123;BME280;68526;44.600;26.032;2024-03-06T00:50:23;100504.44;;;5.14;79.57
79123;BME280;68526;44.600;26.032;2024-03-06T00:50:39;100498.47;;;5.12;79.49
79123;BME280;68526;44.600;26.032;2024-03-06T00:50:55;100501.47;;;5.10;79.56
79123;BME280;68526;44.600;26.032;2024-03-06T00:51:11;100505.53;;;5.13;79.47
79123;BME280;68526;44.600;26.032;2024-03-06T00:51:27;100505.25;;;5.09;79.67
79123;BME280;68526;44.600;26.032;2024-03-06T00:51:43;100507.16;;;5.08;79.34
79123;BME280;68526;44.600;26.032;2024-03-06T00:52:00;100503.34;;;5.09;79.29
79123;BME280;68526;44.600;26.032;2024-03-06T00:52:16;100506.63;;;5.12;79.96
79123;BME280;68526;44.600;26.032;2024-03-06T00:52:32;100505.53;;;5.13;79.79
79123;BME280;68526;44.600;26.032;2024-03-06T00:52:49;100495.75;;;5.12;79.56
79123;BME280;68526;44.600;26.032;2024-03-06T00:53:05;100477.91;;;4.95;79.80
79123;BME280;68526;44.600;26.032;2024-03-06T00:53:21;100503.09;;;5.11;79.98
79123;BME280;68526;44.600;26.032;2024-03-06T00:53:37;100499.00;;;5.14;79.65
79123;BME280;68526;44.600;26.032;2024-03-06T00:53:53;100509.06;;;5.13;79.94
79123;BME280;68526;44.600;26.032;2024-03-06T00:54:11;100502.53;;;5.14;79.63
79123;BME280;68526;44.600;26.032;2024-03-06T00:54:27;100507.16;;;5.14;79.99
79123;BME280;68526;44.600;26.032;2024-03-06T00:54:43;100509.84;;;5.14;79.33
79123;BME280;68526;44.600;26.032;2024-03-06T00:54:59;100503.88;;;5.17;79.43
79123;BME280;68526;44.600;26.032;2024-03-06T00:55:16;100500.91;;;5.13;79.52
79123;BME280;68526;44.600;26.032;2024-03-06T00:55:32;100507.16;;;5.14;80.31
79123;BME280;68526;44.600;26.032;2024-03-06T00:55:48;100508.75;;;5.15;79.57
79123;BME280;68526;44.600;26.032;2024-03-06T00:56:05;100503.06;;;5.16;79.24
79123;BME280;68526;44.600;26.032;2024-03-06T00:56:22;100506.59;;;5.17;79.54
79123;BME280;68526;44.600;26.032;2024-03-06T00:56:38;100498.47;;;5.17;79.39
79123;BME280;68526;44.600;26.032;2024-03-06T00:56:54;100500.38;;;5.16;79.33
79123;BME280;68526;44.600;26.032;2024-03-06T00:57:10;100512.56;;;5.19;78.98
79123;BME280;68526;44.600;26.032;2024-03-06T00:57:26;100501.97;;;5.17;79.28
79123;BME280;68526;44.600;26.032;2024-03-06T00:57:42;100501.16;;;5.17;79.38
79123;BME280;68526;44.600;26.032;2024-03-06T00:57:59;100506.59;;;5.17;79.08
79123;BME280;68526;44.600;26.032;2024-03-06T00:58:15;100504.16;;;5.15;79.17
79123;BME280;68526;44.600;26.032;2024-03-06T00:58:31;100507.16;;;5.14;79.23
79123;BME280;68526;44.600;26.032;2024-03-06T00:58:47;100507.41;;;5.17;79.50
79123;BME280;68526;44.600;26.032;2024-03-06T00:59:03;100512.03;;;5.17;79.40
79123;BME280;68526;44.600;26.032;2024-03-06T00:59:19;100503.88;;;5.17;79.09
79123;BME280;68526;44.600;26.032;2024-03-06T00:59:35;100503.88;;;5.17;79.24
79123;BME280;68526;44.600;26.032;2024-03-06T00:59:50;100512.28;;;5.15;79.21
79123;BME280;68526;44.600;26.032;2024-03-06T01:00:07;100509.56;;;5.15;79.35
79123;BME280;68526;44.600;26.032;2024-03-06T01:00:26;100508.25;;;5.13;79.20
79123;BME280;68526;44.600;26.032;2024-03-06T01:00:42;100508.25;;;5.13;79.26
79123;BME280;68526;44.600;26.032;2024-03-06T01:00:58;100510.16;;;5.12;79.29
79123;BME280;68526;44.600;26.032;2024-03-06T01:01:15;100506.91;;;5.10;79.37
79123;BME280;68526;44.600;26.032;2024-03-06T01:01:32;100510.16;;;5.12;79.17
79123;BME280;68526;44.600;26.032;2024-03-06T01:01:48;100510.16;;;5.12;79.42
79123;BME280;68526;44.600;26.032;2024-03-06T01:02:04;100512.06;;;5.12;79.37
79123;BME280;68526;44.600;26.032;2024-03-06T01:02:21;100509.63;;;5.10;79.88
79123;BME280;68526;44.600;26.032;2024-03-06T01:02:37;100511.25;;;5.11;79.28
79123;BME280;68526;44.600;26.032;2024-03-06T01:02:55;100510.66;;;5.14;79.23
79123;BME280;68526;44.600;26.032;2024-03-06T01:03:11;100511.22;;;5.16;79.53
79123;BME280;68526;44.600;26.032;2024-03-06T01:03:27;100513.38;;;5.14;79.31
79123;BME280;68526;44.600;26.032;2024-03-06T01:03:43;100511.22;;;5.16;79.20
79123;BME280;68526;44.600;26.032;2024-03-06T01:03:59;100515.00;;;5.15;79.44
79123;BME280;68526;44.600;26.032;2024-03-06T01:04:16;100512.34;;;5.10;79.02
79123;BME280;68526;44.600;26.032;2024-03-06T01:04:32;100511.78;;;5.13;79.39
79123;BME280;68526;44.600;26.032;2024-03-06T01:04:48;100511.47;;;5.15;79.55
79123;BME280;68526;44.600;26.032;2024-03-06T01:05:05;100503.34;;;5.09;80.04
79123;BME280;68526;44.600;26.032;2024-03-06T01:05:21;100517.19;;;5.13;79.88
79123;BME280;68526;44.600;26.032;2024-03-06T01:05:37;100512.56;;;5.14;79.67
79123;BME280;68526;44.600;26.032;2024-03-06T01:05:53;100500.38;;;5.16;79.44
79123;BME280;68526;44.600;26.032;2024-03-06T01:06:10;100517.72;;;5.15;79.84
79123;BME280;68526;44.600;26.032;2024-03-06T01:06:26;100505.78;;;5.16;79.48
79123;BME280;68526;44.600;26.032;2024-03-06T01:06:43;100509.34;;;5.12;79.82
79123;BME280;68526;44.600;26.032;2024-03-06T01:06:59;100513.38;;;5.14;79.66
79123;BME280;68526;44.600;26.032;2024-03-06T01:07:15;100512.06;;;5.12;79.36
79123;BME280;68526;44.600;26.032;2024-03-06T01:07:31;100507.72;;;5.11;79.54
79123;BME280;68526;44.600;26.032;2024-03-06T01:07:47;100507.16;;;5.14;79.86
79123;BME280;68526;44.600;26.032;2024-03-06T01:08:04;100515.28;;;5.14;79.76
79123;BME280;68526;44.600;26.032;2024-03-06T01:08:21;100511.78;;;5.13;79.38
79123;BME280;68526;44.600;26.032;2024-03-06T01:08:37;100503.63;;;5.13;79.60
79123;BME280;68526;44.600;26.032;2024-03-06T01:08:54;100510.97;;;5.13;79.75
79123;BME280;68526;44.600;26.032;2024-03-06T01:09:10;100510.16;;;5.12;79.35
79123;BME280;68526;44.600;26.032;2024-03-06T01:09:26;100509.63;;;5.10;79.62
79123;BME280;68526;44.600;26.032;2024-03-06T01:09:42;100512.56;;;5.14;79.56
79123;BME280;68526;44.600;26.032;2024-03-06T01:09:59;100515.81;;;5.16;79.84
79123;BME280;68526;44.600;26.032;2024-03-06T01:10:15;100511.47;;;5.15;79.85
79123;BME280;68526;44.600;26.032;2024-03-06T01:10:31;100517.47;;;5.17;79.60
79123;BME280;68526;44.600;26.032;2024-03-06T01:10:47;100510.38;;;5.16;79.27
79123;BME280;68526;44.600;26.032;2024-03-06T01:11:04;100504.94;;;5.16;79.13
79123;BME280;68526;44.600;26.032;2024-03-06T01:11:20;100518.00;;;5.19;79.20
79123;BME280;68526;44.600;26.032;2024-03-06T01:11:36;100509.56;;;5.20;79.33
79123;BME280;68526;44.600;26.032;2024-03-06T01:11:52;100513.06;;;5.21;79.28
79123;BME280;68526;44.600;26.032;2024-03-06T01:12:09;100508.44;;;5.21;79.64
79123;BME280;68526;44.600;26.032;2024-03-06T01:12:26;100508.44;;;5.21;79.43
79123;BME280;68526;44.600;26.032;2024-03-06T01:12:42;100511.16;;;5.21;79.93
79123;BME280;68526;44.600;26.032;2024-03-06T01:13:01;100509.56;;;5.20;79.52
79123;BME280;68526;44.600;26.032;2024-03-06T01:13:17;100512.28;;;5.20;79.49
79123;BME280;68526;44.600;26.032;2024-03-06T01:13:33;100516.88;;;5.20;79.65
79123;BME280;68526;44.600;26.032;2024-03-06T01:13:49;100512.28;;;5.15;79.61
79123;BME280;68526;44.600;26.032;2024-03-06T01:14:05;100512.03;;;5.17;79.88
79123;BME280;68526;44.600;26.032;2024-03-06T01:14:21;100522.59;;;5.18;79.62
79123;BME280;68526;44.600;26.032;2024-03-06T01:14:37;100516.38;;;5.18;79.19
79123;BME280;68526;44.600;26.032;2024-03-06T01:14:54;100518.53;;;5.16;79.70
79123;BME280;68526;44.600;26.032;2024-03-06T01:15:10;100518.53;;;5.16;79.89
79123;BME280;68526;44.600;26.032;2024-03-06T01:15:26;100513.69;;;5.13;80.25
79123;BME280;68526;44.600;26.032;2024-03-06T01:15:42;100523.97;;;5.16;79.73
79123;BME280;68526;44.600;26.032;2024-03-06T01:15:58;100522.09;;;5.16;79.40
79123;BME280;68526;44.600;26.032;2024-03-06T01:16:14;100530.22;;;5.16;79.79
79123;BME280;68526;44.600;26.032;2024-03-06T01:16:30;100506.59;;;5.17;79.92
79123;BME280;68526;44.600;26.032;2024-03-06T01:16:47;100516.09;;;5.19;79.68
79123;BME280;68526;44.600;26.032;2024-03-06T01:17:03;100506.31;;;5.18;79.60
79123;BME280;68526;44.600;26.032;2024-03-06T01:17:19;100521.22;;;5.21;79.65
79123;BME280;68526;44.600;26.032;2024-03-06T01:17:35;100520.41;;;5.20;79.52
79123;BME280;68526;44.600;26.032;2024-03-06T01:17:50;100510.09;;;5.22;79.69
79123;BME280;68526;44.600;26.032;2024-03-06T01:18:08;100519.31;;;5.21;79.67
79123;BME280;68526;44.600;26.032;2024-03-06T01:18:24;100514.97;;;5.20;79.51
79123;BME280;68526;44.600;26.032;2024-03-06T01:18:41;100520.41;;;5.20;79.77
79123;BME280;68526;44.600;26.032;2024-03-06T01:18:57;100512.00;;;5.22;79.22
79123;BME280;68526;44.600;26.032;2024-03-06T01:19:13;100515.78;;;5.21;79.67
79123;BME280;68526;44.600;26.032;2024-03-06T01:19:29;100522.03;;;5.21;79.37
79123;BME280;68526;44.600;26.032;2024-03-06T01:19:45;100495.78;;;5.06;79.28
79123;BME280;68526;44.600;26.032;2024-03-06T01:20:01;100516.09;;;5.14;79.41
79123;BME280;68526;44.600;26.032;2024-03-06T01:20:22;100513.66;;;5.18;79.22
79123;BME280;68526;44.600;26.032;2024-03-06T01:20:38;100517.47;;;5.17;79.27
79123;BME280;68526;44.600;26.032;2024-03-06T01:20:54;100515.56;;;5.17;79.76
79123;BME280;68526;44.600;26.032;2024-03-06T01:21:10;100514.47;;;5.18;79.22
79123;BME280;68526;44.600;26.032;2024-03-06T01:21:26;100519.59;;;5.20;79.15
79123;BME280;68526;44.600;26.032;2024-03-06T01:21:42;100516.09;;;5.19;79.25
79123;BME280;68526;44.600;26.032;2024-03-06T01:21:59;100519.59;;;5.20;79.17
79123;BME280;68526;44.600;26.032;2024-03-06T01:22:15;100522.59;;;5.18;79.92
79123;BME280;68526;44.600;26.032;2024-03-06T01:22:31;100517.19;;;5.18;79.67
79123;BME280;68526;44.600;26.032;2024-03-06T01:22:47;100509.56;;;5.20;79.77
79123;BME280;68526;44.600;26.032;2024-03-06T01:23:03;100516.09;;;5.19;79.83
79123;BME280;68526;44.600;26.032;2024-03-06T01:23:19;100507.13;;;5.19;79.78
79123;BME280;68526;44.600;26.032;2024-03-06T01:23:35;100516.88;;;5.20;80.08
79123;BME280;68526;44.600;26.032;2024-03-06T01:23:52;100505.50;;;5.18;79.57
79123;BME280;68526;44.600;26.032;2024-03-06T01:24:08;100522.03;;;5.21;80.07
79123;BME280;68526;44.600;26.032;2024-03-06T01:24:24;100512.81;;;5.22;79.68
79123;BME280;68526;44.600;26.032;2024-03-06T01:24:40;100520.16;;;5.22;79.68
79123;BME280;68526;44.600;26.032;2024-03-06T01:24:56;100512.28;;;5.20;79.22
79123;BME280;68526;44.600;26.032;2024-03-06T01:25:12;100514.97;;;5.20;79.52
79123;BME280;68526;44.600;26.032;2024-03-06T01:25:28;100519.31;;;5.21;79.51